Hinton St George, United Kingdom
Current Conditions -  °F | °C
As of 1:50 PM on Monday 26 Jan 2015 (Local Time) from EGDY Reporting Station
Overcast Overcast  
Wind Chill: 40°   Ceiling: 3500
Heat Index: 46°   Visibility: 6mi
Dew Point: 37°   Wind: 15mph
Humidity: 71%   Direction: 300°WNW
Pressure: 30.3"   Gusts: NA
Location:  50.91°N, 2.82°W
Report Text: EGDY 261350Z 30013KT 9999 FEW010 BKN035 OVC250 08/03 Q1026 BLU NOSIG
Loading
Personal Weather Stations






























Interactive Weather Map New forecast layout! Learn more

10-Day Weather Forecast

Advertisements
Track Severe Weather on mobile